Time;durP1;ratioP1;P1;durP2;ratioP2;P2;SDS_P1;SDS_P2;PMS_P1;PMS_P2;Temp;Humidity;BMP_temperature;BMP_pressure;BME280_temperature;BME280_humidity;BME280_pressure;Samples;Min_cycle;Max_cycle;Signal;HPM_P1;HPM_P2
2023/12/14 00:01:25;;;;;;;9.82;4.15;;;5.20;99.90;;;;;;5074750;28;20143;-64
2023/12/14 00:03:50;;;;;;;9.35;3.90;;;5.30;99.90;;;;;;5081219;28;20038;-63
2023/12/14 00:06:16;;;;;;;11.43;3.88;;;5.20;99.90;;;;;;5086557;28;20036;-63
2023/12/14 00:08:41;;;;;;;11.45;3.38;;;5.30;99.90;;;;;;5085539;28;20495;-64
2023/12/14 00:11:11;;;;;;;9.10;3.40;;;5.30;99.90;;;;;;5083885;28;20081;-62
2023/12/14 00:13:38;;;;;;;14.02;4.43;;;5.30;99.90;;;;;;5086417;28;20055;-64
2023/12/14 00:16:04;;;;;;;16.65;5.25;;;5.30;99.90;;;;;;5079483;28;20592;-64
2023/12/14 00:18:33;;;;;;;13.85;4.95;;;5.40;99.90;;;;;;5072556;28;20040;-64
2023/12/14 00:21:00;;;;;;;11.85;4.38;;;5.40;99.90;;;;;;5068346;28;20040;-62
2023/12/14 00:23:26;;;;;;;18.05;5.88;;;5.40;99.90;;;;;;5071173;28;20043;-63
2023/12/14 00:25:52;;;;;;;12.23;4.82;;;5.40;99.90;;;;;;5071822;28;20044;-62
2023/12/14 00:28:17;;;;;;;15.25;5.40;;;5.40;99.90;;;;;;5074334;28;20028;-62
2023/12/14 00:30:45;;;;;;;12.45;5.45;;;5.50;99.90;;;;;;5069177;28;20047;-62
2023/12/14 00:33:11;;;;;;;8.43;4.35;;;5.50;99.90;;;;;;5067540;28;20069;-62
2023/12/14 00:35:38;;;;;;;21.92;5.70;;;5.50;99.90;;;;;;5061574;28;20539;-62
2023/12/14 00:38:03;;;;;;;9.85;5.55;;;5.60;99.90;;;;;;5068379;28;20041;-62
2023/12/14 00:40:29;;;;;;;12.43;6.72;;;5.60;99.90;;;;;;5071892;28;20502;-62
2023/12/14 00:42:56;;;;;;;13.23;5.97;;;5.60;99.90;;;;;;5079131;28;20044;-62
2023/12/14 00:45:22;;;;;;;12.95;5.82;;;5.60;99.90;;;;;;5064369;28;20438;-63
2023/12/14 00:47:52;;;;;;;11.32;6.07;;;5.60;99.90;;;;;;5066294;28;20041;-62
2023/12/14 00:50:18;;;;;;;11.18;5.95;;;5.60;99.90;;;;;;5083267;23;20056;-62
2023/12/14 00:52:43;;;;;;;14.77;5.72;;;5.60;99.90;;;;;;5065128;28;20114;-63
2023/12/14 00:55:10;;;;;;;10.65;5.65;;;5.60;99.90;;;;;;5056144;28;20041;-62
2023/12/14 00:57:53;;;;;;;11.38;5.60;;;5.60;99.90;;;;;;5051322;28;20044;-62
2023/12/14 01:00:19;;;;;;;10.13;5.65;;;5.60;99.90;;;;;;5051461;28;22400;-62
2023/12/14 01:02:45;;;;;;;10.45;5.80;;;5.70;99.90;;;;;;5045294;28;20560;-62
2023/12/14 01:05:10;;;;;;;12.80;6.10;;;5.70;99.90;;;;;;5047307;28;20450;-63
2023/12/14 01:07:36;;;;;;;10.70;5.53;;;5.70;99.90;;;;;;5048618;28;20037;-63
2023/12/14 01:10:03;;;;;;;12.70;4.93;;;5.70;99.90;;;;;;5050618;28;20064;-62
2023/12/14 01:12:28;;;;;;;11.00;5.60;;;5.70;99.90;;;;;;5047487;28;20052;-63
2023/12/14 01:14:54;;;;;;;10.88;5.25;;;5.70;99.90;;;;;;5054715;28;20037;-62
2023/12/14 01:17:19;;;;;;;12.48;5.20;;;5.70;99.90;;;;;;5046201;28;20047;-63
2023/12/14 01:19:45;;;;;;;10.93;4.65;;;5.80;99.90;;;;;;5047398;28;20083;-63
2023/12/14 01:22:10;;;;;;;9.27;4.85;;;5.80;99.90;;;;;;5047459;28;20693;-62
2023/12/14 01:24:36;;;;;;;10.13;4.63;;;5.80;99.90;;;;;;5045903;28;20040;-64
2023/12/14 01:27:02;;;;;;;;;;;5.90;99.90;;;;;;5048243;28;20131;-63
2023/12/14 01:29:27;;;;;;;10.07;5.70;;;5.80;99.90;;;;;;5040110;28;19921;-62
2023/12/14 01:31:53;;;;;;;9.27;4.68;;;5.80;99.90;;;;;;5043268;28;20633;-64
2023/12/14 01:34:18;;;;;;;10.93;5.93;;;5.90;99.90;;;;;;5047195;28;20052;-64
2023/12/14 01:36:45;;;;;;;11.02;5.22;;;5.80;99.90;;;;;;5046276;28;20041;-63
2023/12/14 01:39:11;;;;;;;13.77;5.75;;;5.90;99.90;;;;;;5047569;28;20383;-62
2023/12/14 01:41:37;;;;;;;7.63;5.18;;;5.90;99.90;;;;;;5048084;28;20117;-61
2023/12/14 01:44:02;;;;;;;9.43;5.25;;;5.90;99.90;;;;;;5044060;28;20047;-63
2023/12/14 01:46:28;;;;;;;9.10;5.05;;;5.90;99.90;;;;;;5042974;28;20146;-63
2023/12/14 01:48:54;;;;;;;8.65;4.95;;;5.90;99.90;;;;;;5045930;28;20104;-63
2023/12/14 01:51:20;;;;;;;9.85;5.38;;;5.90;99.90;;;;;;5042368;28;20025;-63
2023/12/14 01:53:49;;;;;;;9.38;4.55;;;5.80;99.90;;;;;;5045218;28;20090;-63
2023/12/14 01:56:15;;;;;;;7.35;4.20;;;5.80;99.90;;;;;;5044124;28;20411;-63
2023/12/14 01:58:40;;;;;;;11.70;4.30;;;5.90;99.90;;;;;;5044646;28;20128;-62
2023/12/14 02:01:18;;;;;;;6.97;4.10;;;5.90;99.90;;;;;;5045622;28;20040;-61
2023/12/14 02:03:45;;;;;;;6.72;4.50;;;5.90;99.90;;;;;;5045470;28;20642;-62
2023/12/14 02:06:11;;;;;;;8.18;4.25;;;5.90;99.90;;;;;;5045873;28;20044;-63
2023/12/14 02:08:36;;;;;;;12.05;4.78;;;5.90;99.90;;;;;;5043247;28;20400;-63
2023/12/14 02:11:02;;;;;;;11.45;5.40;;;5.90;99.90;;;;;;5047302;28;20062;-63
2023/12/14 02:13:27;;;;;;;;;;;5.90;99.90;;;;;;5046960;28;20040;-62
2023/12/14 02:15:53;;;;;;;8.63;4.65;;;5.90;99.90;;;;;;5047389;28;20431;-62
2023/12/14 02:18:19;;;;;;;8.48;4.55;;;6.00;99.90;;;;;;5045972;28;20060;-61
2023/12/14 02:20:44;;;;;;;11.70;6.22;;;6.00;99.90;;;;;;5042597;28;20162;-62
2023/12/14 02:23:10;;;;;;;14.35;7.10;;;6.00;99.90;;;;;;5045675;28;20037;-62
2023/12/14 02:25:35;;;;;;;15.27;6.85;;;6.00;99.90;;;;;;5039916;28;20053;-63
2023/12/14 02:28:01;;;;;;;18.08;7.60;;;6.00;99.90;;;;;;5044279;28;20051;-63
2023/12/14 02:30:27;;;;;;;15.85;7.43;;;6.00;99.90;;;;;;5044759;28;20064;-62
2023/12/14 02:32:52;;;;;;;18.83;7.10;;;6.00;99.90;;;;;;5048482;28;20044;-62
2023/12/14 02:35:18;;;;;;;;;;;6.00;99.90;;;;;;5045423;28;20128;-62
2023/12/14 02:37:43;;;;;;;22.27;7.78;;;6.00;99.90;;;;;;5047153;28;19928;-63
2023/12/14 02:40:10;;;;;;;18.48;8.32;;;5.90;99.90;;;;;;5044840;28;20037;-61
2023/12/14 02:42:36;;;;;;;18.45;7.75;;;5.90;99.90;;;;;;5042500;28;20127;-62
2023/12/14 02:45:02;;;;;;;19.17;7.93;;;5.90;99.90;;;;;;5045015;28;20039;-63
2023/12/14 02:47:29;;;;;;;21.13;9.02;;;5.90;99.90;;;;;;5047032;28;20045;-62
2023/12/14 02:49:55;;;;;;;17.90;7.10;;;5.90;99.90;;;;;;5043330;28;20045;-63
2023/12/14 02:52:21;;;;;;;14.68;6.45;;;5.90;99.90;;;;;;5044720;28;20138;-63
2023/12/14 02:54:47;;;;;;;9.93;5.20;;;5.90;99.90;;;;;;5045942;28;20036;-63
2023/12/14 02:57:12;;;;;;;10.18;3.97;;;5.80;99.90;;;;;;5044460;28;20430;-63
2023/12/14 02:59:38;;;;;;;;;;;5.80;99.90;;;;;;5044530;28;20064;-63
2023/12/14 03:02:04;;;;;;;6.65;3.13;;;5.80;99.90;;;;;;5045276;28;20376;-62
2023/12/14 03:04:29;;;;;;;8.85;3.60;;;5.70;99.90;;;;;;5044197;28;20033;-64
2023/12/14 03:06:56;;;;;;;;;;;5.70;99.90;;;;;;5045721;28;20045;-63
2023/12/14 03:09:22;;;;;;;6.47;2.38;;;5.80;99.90;;;;;;5038790;28;19956;-63
2023/12/14 03:11:48;;;;;;;4.85;2.50;;;5.70;99.90;;;;;;5047529;28;20111;-62
2023/12/14 03:14:13;;;;;;;3.58;2.25;;;5.70;99.90;;;;;;5043680;28;20044;-63
2023/12/14 03:16:39;;;;;;;6.03;2.00;;;5.70;99.90;;;;;;5044508;28;20041;-61
2023/12/14 03:19:05;;;;;;;4.78;2.30;;;5.60;99.90;;;;;;5044851;28;20040;-63
2023/12/14 03:21:30;;;;;;;;;;;5.60;99.90;;;;;;5044831;28;20049;-62
2023/12/14 03:23:56;;;;;;;4.22;1.55;;;5.50;99.90;;;;;;5045251;28;19978;-62
2023/12/14 03:26:21;;;;;;;3.70;1.90;;;5.50;99.90;;;;;;5044515;28;20167;-63
2023/12/14 03:28:47;;;;;;;4.75;2.15;;;5.50;99.90;;;;;;5044891;28;20045;-63
2023/12/14 03:31:13;;;;;;;3.28;1.92;;;5.40;99.90;;;;;;5044021;28;20033;-61
2023/12/14 03:33:39;;;;;;;5.88;2.30;;;5.40;99.90;;;;;;5047693;28;20040;-63
2023/12/14 03:36:05;;;;;;;3.58;2.30;;;5.30;99.90;;;;;;5043766;28;20098;-63
2023/12/14 03:38:31;;;;;;;15.88;2.60;;;5.30;99.90;;;;;;5044927;28;20049;-60
2023/12/14 03:40:57;;;;;;;4.40;3.03;;;5.20;99.90;;;;;;5043462;28;20373;-63
2023/12/14 03:43:23;;;;;;;8.02;2.63;;;5.20;99.90;;;;;;5044334;28;20047;-62
2023/12/14 03:45:48;;;;;;;4.93;2.50;;;5.20;99.90;;;;;;5045248;28;20419;-64
2023/12/14 03:48:14;;;;;;;3.67;1.98;;;5.20;99.90;;;;;;5042494;28;20128;-63
2023/12/14 03:50:39;;;;;;;4.72;2.38;;;5.20;99.90;;;;;;5043518;28;20515;-63
2023/12/14 03:53:05;;;;;;;4.63;2.60;;;5.20;99.90;;;;;;5046702;28;20569;-63
2023/12/14 03:55:30;;;;;;;4.10;2.25;;;5.20;99.90;;;;;;5046667;28;20037;-62
2023/12/14 03:57:56;;;;;;;3.90;1.65;;;5.20;99.90;;;;;;5047959;28;20550;-63
2023/12/14 04:00:22;;;;;;;4.07;2.13;;;5.20;99.90;;;;;;5044613;28;20623;-63
2023/12/14 04:02:47;;;;;;;3.45;1.80;;;5.10;99.90;;;;;;5051332;28;20492;-62
2023/12/14 04:05:13;;;;;;;3.58;2.05;;;5.10;99.90;;;;;;5048178;28;20503;-62
2023/12/14 04:07:40;;;;;;;3.50;1.58;;;5.00;99.90;;;;;;5047903;28;20075;-63
2023/12/14 04:10:15;;;;;;;3.42;2.03;;;5.00;99.90;;;;;;5046757;28;20045;-62
2023/12/14 04:12:41;;;;;;;2.42;1.48;;;5.00;99.90;;;;;;5046174;28;20036;-62
2023/12/14 04:15:09;;;;;;;2.13;1.40;;;4.90;99.90;;;;;;5049585;28;20120;-62
2023/12/14 04:17:35;;;;;;;2.13;1.30;;;5.00;99.90;;;;;;5044611;28;20073;-61
2023/12/14 04:20:01;;;;;;;3.55;1.88;;;5.00;99.90;;;;;;5049163;28;20543;-62
2023/12/14 04:22:27;;;;;;;6.30;1.42;;;5.00;99.90;;;;;;5044306;28;20041;-63
2023/12/14 04:24:53;;;;;;;2.45;1.30;;;5.00;99.90;;;;;;5048283;28;20048;-63
2023/12/14 04:27:18;;;;;;;2.33;1.40;;;4.90;99.90;;;;;;5050435;28;20412;-61
2023/12/14 04:29:44;;;;;;;2.58;1.63;;;4.90;99.90;;;;;;5046454;28;20073;-61
2023/12/14 04:32:09;;;;;;;3.60;1.77;;;4.80;99.90;;;;;;5048393;28;20103;-60
2023/12/14 04:34:35;;;;;;;3.10;1.63;;;4.80;99.90;;;;;;5051262;28;20045;-60
2023/12/14 04:37:01;;;;;;;3.90;1.98;;;4.70;99.90;;;;;;5047526;28;20124;-63
2023/12/14 04:39:27;;;;;;;2.35;1.40;;;4.70;99.90;;;;;;5050936;28;20637;-63
2023/12/14 04:41:53;;;;;;;3.15;1.60;;;4.80;99.90;;;;;;5047141;28;20029;-63
2023/12/14 04:44:19;;;;;;;4.50;1.30;;;4.80;99.90;;;;;;5050329;28;20090;-63
2023/12/14 04:46:45;;;;;;;4.05;1.98;;;4.70;99.90;;;;;;5046556;28;20045;-63
2023/12/14 04:49:10;;;;;;;3.20;1.30;;;4.70;99.90;;;;;;5048401;28;20459;-63
2023/12/14 04:51:36;;;;;;;2.13;1.20;;;4.70;99.90;;;;;;5045303;28;20276;-62
2023/12/14 04:54:03;;;;;;;5.03;1.67;;;4.60;99.90;;;;;;5047938;28;20041;-62
2023/12/14 04:56:29;;;;;;;2.95;1.42;;;4.60;99.90;;;;;;5046614;28;20515;-62
2023/12/14 04:58:54;;;;;;;2.47;1.40;;;4.60;99.90;;;;;;5048451;28;20033;-62
2023/12/14 05:01:20;;;;;;;2.60;1.42;;;4.50;99.90;;;;;;5046401;28;20037;-63
2023/12/14 05:03:45;;;;;;;2.00;1.33;;;4.50;99.90;;;;;;5046992;28;20029;-62
2023/12/14 05:06:11;;;;;;;1.67;1.10;;;4.40;99.90;;;;;;5046718;28;20080;-61
2023/12/14 05:08:36;;;;;;;2.28;1.00;;;4.30;99.90;;;;;;5046347;28;20123;-62
2023/12/14 05:11:03;;;;;;;1.50;0.98;;;4.30;99.90;;;;;;5047072;28;20544;-62
2023/12/14 05:13:29;;;;;;;2.10;1.00;;;4.20;99.90;;;;;;5047060;28;20045;-63
2023/12/14 05:15:55;;;;;;;1.63;0.88;;;4.20;99.90;;;;;;5045661;28;20052;-60
2023/12/14 05:18:20;;;;;;;1.25;0.77;;;4.30;99.90;;;;;;5047738;28;20049;-62
2023/12/14 05:20:46;;;;;;;1.63;0.80;;;4.30;99.90;;;;;;5044092;28;20055;-63
2023/12/14 05:23:12;;;;;;;1.20;0.70;;;4.30;99.90;;;;;;5045800;28;20044;-63
2023/12/14 05:25:38;;;;;;;2.03;0.82;;;4.30;99.90;;;;;;5045349;28;20041;-62
2023/12/14 05:28:04;;;;;;;1.90;1.08;;;4.20;99.90;;;;;;5046685;28;20416;-61
2023/12/14 05:30:30;;;;;;;1.98;1.10;;;4.20;99.90;;;;;;5042653;28;20520;-62
2023/12/14 05:32:55;;;;;;;2.25;0.70;;;4.10;99.90;;;;;;5046561;28;20083;-63
2023/12/14 05:35:21;;;;;;;1.13;0.80;;;4.10;99.90;;;;;;5046560;28;20076;-62
2023/12/14 05:37:48;;;;;;;2.47;0.80;;;4.10;99.90;;;;;;5047554;28;20058;-63
2023/12/14 05:40:13;;;;;;;1.55;0.98;;;4.10;99.90;;;;;;5050579;28;20033;-58
2023/12/14 05:42:39;;;;;;;1.73;1.00;;;4.20;99.90;;;;;;5046994;28;20044;-62
2023/12/14 05:45:06;;;;;;;1.25;0.73;;;4.20;99.90;;;;;;5049623;28;20094;-63
2023/12/14 05:47:34;;;;;;;1.15;0.55;;;4.30;99.90;;;;;;5046672;28;20500;-62
2023/12/14 05:50:01;;;;;;;1.00;0.60;;;4.20;99.90;;;;;;5049442;28;20065;-63
2023/12/14 05:52:27;;;;;;;1.25;0.68;;;4.10;99.90;;;;;;5047090;28;20714;-63
2023/12/14 05:54:53;;;;;;;1.48;0.70;;;4.10;99.90;;;;;;5045418;28;20037;-62
2023/12/14 05:57:19;;;;;;;1.80;0.88;;;4.10;99.90;;;;;;5044995;28;20722;-62
2023/12/14 05:59:45;;;;;;;1.58;0.73;;;4.00;99.90;;;;;;5045140;28;20040;-62
2023/12/14 06:02:11;;;;;;;2.20;0.90;;;4.00;99.90;;;;;;5044307;28;20051;-60
2023/12/14 06:04:37;;;;;;;1.50;0.90;;;4.10;99.90;;;;;;5044783;28;20049;-61
2023/12/14 06:07:02;;;;;;;1.00;0.63;;;4.20;99.90;;;;;;5048779;28;20511;-61
2023/12/14 06:09:34;;;;;;;1.27;0.75;;;4.20;99.90;;;;;;5045374;28;20048;-59
2023/12/14 06:12:01;;;;;;;2.20;0.93;;;4.20;99.90;;;;;;5047430;28;20447;-62
2023/12/14 06:14:27;;;;;;;1.13;0.60;;;4.20;99.90;;;;;;5062866;28;20048;-62
2023/12/14 06:16:53;;;;;;;2.53;0.75;;;4.20;99.90;;;;;;5048521;28;20037;-60
2023/12/14 06:19:18;;;;;;;2.60;0.75;;;4.20;99.90;;;;;;5042751;28;20132;-58
2023/12/14 06:21:44;;;;;;;1.40;0.80;;;4.10;99.90;;;;;;5043250;28;20083;-59
2023/12/14 06:24:10;;;;;;;1.65;0.88;;;4.00;99.90;;;;;;5043494;28;20045;-60
2023/12/14 06:26:40;;;;;;;1.88;0.90;;;4.00;99.90;;;;;;5046077;28;20155;-62
2023/12/14 06:29:05;;;;;;;1.25;0.50;;;4.00;99.90;;;;;;5045823;28;20070;-64
2023/12/14 06:31:31;;;;;;;1.60;0.60;;;4.00;99.90;;;;;;5048379;28;20044;-65
2023/12/14 06:33:57;;;;;;;1.30;0.70;;;4.10;99.90;;;;;;5044461;28;20039;-61
2023/12/14 06:36:26;;;;;;;1.33;0.60;;;4.10;99.90;;;;;;5041112;28;20040;-64
2023/12/14 06:38:52;;;;;;;1.33;0.75;;;4.10;99.90;;;;;;5040794;28;21762;-63
2023/12/14 06:41:21;;;;;;;1.40;0.90;;;4.10;99.90;;;;;;5047970;28;20516;-67
2023/12/14 06:43:46;;;;;;;1.65;0.90;;;4.00;99.90;;;;;;5043140;28;20052;-67
2023/12/14 06:46:12;;;;;;;4.43;1.05;;;4.00;99.90;;;;;;5043119;28;20037;-66
2023/12/14 06:48:38;;;;;;;1.42;0.77;;;4.00;99.90;;;;;;5045630;28;20045;-67
2023/12/14 06:51:03;;;;;;;1.30;1.00;;;4.00;99.90;;;;;;5044020;28;20037;-65
2023/12/14 06:53:30;;;;;;;1.50;0.90;;;4.00;99.90;;;;;;5043332;28;20041;-65
2023/12/14 06:55:55;;;;;;;1.00;0.63;;;4.10;99.90;;;;;;5041756;28;20452;-66
2023/12/14 06:58:21;;;;;;;2.03;0.93;;;4.10;99.90;;;;;;5046953;28;20037;-65
2023/12/14 07:00:47;;;;;;;2.30;0.80;;;4.10;99.90;;;;;;5044443;28;20036;-65
2023/12/14 07:03:13;;;;;;;1.77;0.82;;;4.10;99.90;;;;;;5043857;28;20040;-65
2023/12/14 07:05:39;;;;;;;3.42;1.60;;;4.00;99.90;;;;;;5044792;28;20036;-64
2023/12/14 07:08:04;;;;;;;4.00;1.90;;;4.00;99.90;;;;;;5046732;28;20041;-66
2023/12/14 07:10:30;;;;;;;4.82;1.80;;;4.10;99.90;;;;;;5044485;28;20045;-65
2023/12/14 07:12:56;;;;;;;2.17;1.30;;;4.10;99.90;;;;;;5044106;28;20563;-65
2023/12/14 07:15:21;;;;;;;2.50;1.67;;;4.10;99.90;;;;;;5044014;28;20041;-64
2023/12/14 07:17:47;;;;;;;9.60;3.92;;;4.10;99.90;;;;;;5048196;28;20045;-65
2023/12/14 07:20:13;;;;;;;4.30;2.67;;;4.10;99.90;;;;;;5047029;28;20025;-65
2023/12/14 07:22:38;;;;;;;3.85;1.48;;;4.10;99.90;;;;;;5045330;28;20120;-63
2023/12/14 07:25:04;;;;;;;3.55;1.30;;;4.00;99.90;;;;;;5046494;28;20041;-66
2023/12/14 07:27:30;;;;;;;2.80;1.40;;;4.00;99.90;;;;;;5045040;28;20094;-65
2023/12/14 07:29:56;;;;;;;2.05;1.10;;;3.90;99.90;;;;;;5051563;28;20044;-65
2023/12/14 07:32:21;;;;;;;3.28;1.40;;;3.90;99.90;;;;;;5048482;28;20704;-65
2023/12/14 07:34:47;;;;;;;1.75;1.13;;;3.80;99.90;;;;;;5047632;28;20037;-65
2023/12/14 07:37:13;;;;;;;5.18;1.38;;;3.80;99.90;;;;;;5059184;28;20072;-65
2023/12/14 07:39:38;;;;;;;1.77;1.30;;;3.70;99.90;;;;;;5046675;28;20064;-64
2023/12/14 07:42:05;;;;;;;2.58;1.35;;;3.70;99.90;;;;;;5067951;28;20087;-64
2023/12/14 07:44:31;;;;;;;2.72;1.25;;;3.70;99.90;;;;;;5049965;28;20041;-64
2023/12/14 07:47:00;;;;;;;4.63;1.13;;;3.70;99.90;;;;;;5050656;28;20131;-65
2023/12/14 07:49:26;;;;;;;2.53;1.38;;;3.80;99.90;;;;;;5048823;28;20040;-64
2023/12/14 07:51:51;;;;;;;2.33;1.10;;;3.80;99.90;;;;;;5051275;28;20044;-64
2023/12/14 07:54:18;;;;;;;2.40;1.17;;;3.80;99.90;;;;;;5048579;28;20028;-64
2023/12/14 07:56:44;;;;;;;1.85;1.08;;;3.90;99.90;;;;;;5048898;28;20139;-63
2023/12/14 07:59:10;;;;;;;2.63;1.10;;;3.80;99.90;;;;;;5047144;28;20071;-65
2023/12/14 08:01:36;;;;;;;3.08;1.17;;;3.90;99.90;;;;;;5049484;28;20051;-64
2023/12/14 08:04:03;;;;;;;2.08;1.38;;;3.90;99.90;;;;;;5047845;28;20512;-63
2023/12/14 08:06:29;;;;;;;3.47;1.50;;;3.80;99.90;;;;;;5048081;28;20116;-64
2023/12/14 08:08:57;;;;;;;3.28;1.23;;;3.80;99.90;;;;;;5047626;28;20120;-64
2023/12/14 08:11:23;;;;;;;2.53;1.10;;;3.80;99.90;;;;;;5048449;28;20045;-64
2023/12/14 08:13:49;;;;;;;1.85;1.05;;;3.80;99.90;;;;;;5047896;28;20142;-65
2023/12/14 08:16:17;;;;;;;3.65;1.70;;;3.80;99.90;;;;;;5050038;28;20044;-65
2023/12/14 08:18:44;;;;;;;1.45;1.05;;;3.70;99.90;;;;;;5050332;28;20066;-63
2023/12/14 08:21:10;;;;;;;3.00;1.55;;;3.70;99.90;;;;;;5048097;28;20052;-64
2023/12/14 08:23:36;;;;;;;6.05;2.05;;;3.80;99.90;;;;;;5049689;28;20412;-64
2023/12/14 08:26:01;;;;;;;2.15;1.38;;;3.70;99.90;;;;;;5047636;28;20040;-64
2023/12/14 08:28:27;;;;;;;3.70;1.65;;;3.80;99.90;;;;;;5048839;28;20564;-63
2023/12/14 08:30:52;;;;;;;3.70;1.63;;;3.80;99.90;;;;;;5045185;28;20033;-64
2023/12/14 08:33:18;;;;;;;2.70;1.52;;;3.90;99.90;;;;;;5046303;28;20204;-63
2023/12/14 08:35:43;;;;;;;4.18;2.05;;;3.90;99.90;;;;;;5047432;28;20049;-63
2023/12/14 08:38:10;;;;;;;11.40;2.90;;;3.90;99.90;;;;;;5051759;28;20040;-63
2023/12/14 08:40:36;;;;;;;39.47;4.25;;;3.90;99.90;;;;;;5046533;28;20052;-66
2023/12/14 08:43:03;;;;;;;31.65;4.18;;;3.70;99.90;;;;;;5048676;28;20033;-64
2023/12/14 08:45:28;;;;;;;36.75;5.03;;;3.60;99.90;;;;;;5045240;28;20428;-64
2023/12/14 08:47:54;;;;;;;12.93;4.18;;;3.60;99.90;;;;;;5048171;28;20047;-65
2023/12/14 08:50:19;;;;;;;8.90;3.70;;;3.60;99.90;;;;;;5047072;28;20037;-64
2023/12/14 08:52:45;;;;;;;8.00;4.35;;;3.60;99.90;;;;;;5050927;28;20058;-64
2023/12/14 08:55:11;;;;;;;7.20;3.40;;;3.60;99.90;;;;;;5042986;28;20033;-64
2023/12/14 08:57:37;;;;;;;7.28;4.00;;;3.60;99.90;;;;;;5051269;28;20081;-64
2023/12/14 09:00:06;;;;;;;15.82;3.95;;;3.60;99.90;;;;;;5043629;28;20087;-63
2023/12/14 09:02:32;;;;;;;10.52;4.10;;;3.60;99.90;;;;;;5047358;28;20131;-64
2023/12/14 09:04:58;;;;;;;4.88;3.25;;;3.70;99.90;;;;;;5045268;28;20548;-64
2023/12/14 09:07:23;;;;;;;7.68;3.45;;;3.70;99.90;;;;;;5045670;28;20136;-64
2023/12/14 09:09:49;;;;;;;5.22;3.30;;;3.80;99.90;;;;;;5045785;28;20084;-63
2023/12/14 09:12:15;;;;;;;6.47;3.65;;;3.80;99.90;;;;;;5046121;28;20556;-63
2023/12/14 09:14:40;;;;;;;6.53;3.03;;;3.80;99.90;;;;;;5044854;28;20048;-64
2023/12/14 09:17:06;;;;;;;9.57;2.85;;;3.80;99.90;;;;;;5045835;28;20668;-62
2023/12/14 09:19:32;;;;;;;6.30;3.25;;;3.90;99.90;;;;;;5048596;28;20048;-60
2023/12/14 09:21:58;;;;;;;28.30;4.72;;;3.80;99.90;;;;;;5045250;28;20056;-62
2023/12/14 09:24:23;;;;;;;394.83;17.23;;;3.80;99.90;;;;;;5044985;28;20052;-63
2023/12/14 09:26:49;;;;;;;136.88;7.80;;;3.70;99.90;;;;;;5045784;28;20646;-63
2023/12/14 09:29:15;;;;;;;51.72;5.22;;;3.60;99.90;;;;;;5045342;28;20709;-65
2023/12/14 09:31:44;;;;;;;25.85;5.10;;;3.60;99.90;;;;;;5050057;28;20120;-63
2023/12/14 09:34:11;;;;;;;20.90;4.95;;;3.50;99.90;;;;;;5045604;28;20416;-65
2023/12/14 09:36:39;;;;;;;10.77;4.68;;;3.50;99.90;;;;;;5053390;28;20735;-65
2023/12/14 09:39:05;;;;;;;8.38;3.88;;;3.50;99.90;;;;;;5049401;28;20071;-65
2023/12/14 09:41:30;;;;;;;7.82;4.40;;;3.60;99.90;;;;;;5052305;28;20048;-64
2023/12/14 09:43:56;;;;;;;7.57;3.97;;;3.60;99.90;;;;;;5051147;28;20025;-64
2023/12/14 09:46:23;;;;;;;10.10;4.63;;;3.70;99.90;;;;;;5053372;28;20055;-64
2023/12/14 09:48:54;;;;;;;9.48;4.85;;;3.60;99.90;;;;;;5052603;28;20099;-64
2023/12/14 09:51:20;;;;;;;6.22;3.60;;;3.70;99.90;;;;;;5047667;28;20400;-65
2023/12/14 09:53:47;;;;;;;7.43;3.03;;;3.80;99.90;;;;;;5047549;28;20040;-64
2023/12/14 09:56:12;;;;;;;5.53;3.10;;;3.90;99.90;;;;;;5044791;28;20049;-65
2023/12/14 09:58:38;;;;;;;6.93;3.13;;;3.90;99.90;;;;;;5048252;28;20090;-64
2023/12/14 10:01:21;;;;;;;5.32;2.67;;;4.00;99.90;;;;;;5044051;28;20040;-66
2023/12/14 10:03:47;;;;;;;4.40;2.47;;;4.10;99.90;;;;;;5046783;28;20483;-65
2023/12/14 10:06:12;;;;;;;4.18;2.47;;;4.10;99.90;;;;;;5043919;28;20056;-64
2023/12/14 10:08:38;;;;;;;3.88;2.40;;;3.90;99.90;;;;;;5046211;28;20040;-65
2023/12/14 10:11:16;;;;;;;7.55;2.83;;;3.90;99.90;;;;;;5046139;28;20051;-65
2023/12/14 10:13:41;;;;;;;5.95;3.33;;;3.90;99.90;;;;;;5045990;28;20044;-64
2023/12/14 10:16:07;;;;;;;3.47;2.33;;;3.80;99.90;;;;;;5047911;28;20043;-64
2023/12/14 10:18:37;;;;;;;5.88;3.20;;;3.80;99.90;;;;;;5050612;28;20431;-65
2023/12/14 10:21:06;;;;;;;7.00;3.05;;;3.90;99.90;;;;;;5048447;28;20124;-64
2023/12/14 10:23:33;;;;;;;5.07;3.22;;;3.80;99.90;;;;;;5049649;28;20029;-66
2023/12/14 10:25:58;;;;;;;5.00;3.50;;;3.90;99.90;;;;;;5045406;28;20052;-65
2023/12/14 10:28:24;;;;;;;9.80;4.32;;;3.80;99.90;;;;;;5049090;28;20049;-63
2023/12/14 10:30:49;;;;;;;5.53;3.72;;;3.70;99.90;;;;;;5047953;28;20045;-62
2023/12/14 10:33:16;;;;;;;7.13;3.85;;;3.70;99.90;;;;;;5052218;28;20491;-65
2023/12/14 10:35:43;;;;;;;6.60;4.43;;;3.80;99.90;;;;;;5049675;28;20045;-64
2023/12/14 10:38:11;;;;;;;6.72;3.80;;;3.80;99.90;;;;;;5047193;28;20033;-65
2023/12/14 10:40:40;;;;;;;5.53;3.50;;;3.90;99.90;;;;;;5044511;28;20051;-66
2023/12/14 10:43:06;;;;;;;6.80;4.10;;;3.90;99.90;;;;;;5044770;28;20110;-64
2023/12/14 10:45:33;;;;;;;6.32;3.65;;;4.00;99.90;;;;;;5055558;28;20081;-64
2023/12/14 10:48:00;;;;;;;6.70;4.10;;;4.00;99.90;;;;;;5053586;28;20036;-65
2023/12/14 10:50:30;;;;;;;8.00;4.10;;;3.90;99.90;;;;;;5046695;28;20637;-64
2023/12/14 10:53:00;;;;;;;6.30;3.63;;;3.90;99.90;;;;;;5041839;28;20036;-65
2023/12/14 10:55:31;;;;;;;6.45;3.90;;;3.80;99.90;;;;;;5045158;28;20656;-64
2023/12/14 10:58:00;;;;;;;47.38;5.93;;;3.70;99.90;;;;;;5045033;28;20102;-65
2023/12/14 11:00:26;;;;;;;8.18;5.18;;;3.70;99.90;;;;;;5046788;28;20045;-64
2023/12/14 11:02:52;;;;;;;8.77;5.28;;;3.60;99.90;;;;;;5044835;28;20048;-64
2023/12/14 11:05:26;;;;;;;17.52;5.68;;;3.60;99.90;;;;;;5045688;28;20048;-63
2023/12/14 11:08:00;;;;;;;19.33;4.93;;;3.60;99.90;;;;;;5044630;28;20081;-64
2023/12/14 11:10:43;;;;;;;10.20;4.95;;;3.70;99.90;;;;;;5045073;28;20044;-67
2023/12/14 11:13:12;;;;;;;50.00;6.70;;;3.70;99.90;;;;;;5044678;28;20115;-65
2023/12/14 11:15:39;;;;;;;11.75;5.25;;;3.60;99.90;;;;;;5045351;28;20048;-66
2023/12/14 11:18:10;;;;;;;7.85;5.03;;;3.50;99.90;;;;;;5045512;28;20045;-64
2023/12/14 11:20:44;;;;;;;8.38;5.20;;;3.50;99.90;;;;;;5044924;28;20037;-64
2023/12/14 11:23:13;;;;;;;7.70;4.63;;;3.60;99.90;;;;;;5044450;28;20044;-65
2023/12/14 11:25:40;;;;;;;9.30;5.15;;;3.70;99.90;;;;;;5042623;28;20044;-66
2023/12/14 11:28:07;;;;;;;8.65;5.50;;;3.70;99.90;;;;;;5047127;28;20033;-66
2023/12/14 11:30:34;;;;;;;10.48;5.78;;;3.70;99.90;;;;;;5043490;28;20041;-66
2023/12/14 11:33:00;;;;;;;16.35;5.40;;;3.70;99.90;;;;;;5045133;28;20036;-66
2023/12/14 11:35:26;;;;;;;18.80;6.45;;;3.70;99.90;;;;;;5042840;28;20037;-66
2023/12/14 11:37:51;;;;;;;12.85;6.18;;;3.70;99.90;;;;;;5044606;28;20044;-65
2023/12/14 11:40:22;;;;;;;10.32;6.10;;;3.60;99.90;;;;;;5046736;28;20111;-67
2023/12/14 11:43:09;;;;;;;13.77;6.80;;;3.70;99.90;;;;;;5045200;28;20540;-66
2023/12/14 11:45:36;;;;;;;70.47;7.15;;;3.70;99.90;;;;;;5043538;28;20490;-66
2023/12/14 11:48:05;;;;;;;28.08;6.65;;;3.70;99.90;;;;;;5041856;28;20041;-67
2023/12/14 11:50:31;;;;;;;54.72;8.18;;;3.70;99.90;;;;;;5042677;28;20134;-66
2023/12/14 11:52:57;;;;;;;106.40;8.98;;;3.60;99.90;;;;;;5044326;28;20151;-64
2023/12/14 11:55:22;;;;;;;91.70;10.23;;;3.60;99.90;;;;;;5043762;28;20102;-65
2023/12/14 11:57:49;;;;;;;27.95;7.00;;;3.50;99.90;;;;;;5047924;28;20412;-66
2023/12/14 12:00:16;;;;;;;28.75;6.95;;;3.50;99.90;;;;;;5041521;28;20041;-66
2023/12/14 12:02:42;;;;;;;16.85;7.20;;;3.60;99.90;;;;;;5045156;28;20124;-66
2023/12/14 12:05:13;;;;;;;140.68;11.25;;;3.60;99.90;;;;;;5046434;28;20120;-66
2023/12/14 12:07:38;;;;;;;12.60;6.20;;;3.60;99.90;;;;;;5050372;28;20045;-67
2023/12/14 12:10:06;;;;;;;40.85;7.15;;;3.60;99.90;;;;;;5046497;28;20718;-67
2023/12/14 12:12:34;;;;;;;82.75;9.73;;;3.60;99.90;;;;;;5049400;28;20124;-67
2023/12/14 12:14:59;;;;;;;83.03;9.73;;;3.60;99.90;;;;;;5048393;28;20083;-66
2023/12/14 12:17:26;;;;;;;12.55;6.30;;;3.50;99.90;;;;;;5050893;28;20065;-66
2023/12/14 12:19:51;;;;;;;20.77;7.68;;;3.50;99.90;;;;;;5048287;28;20794;-66
2023/12/14 12:22:17;;;;;;;67.07;9.10;;;3.50;99.90;;;;;;5052876;28;20051;-65
2023/12/14 12:24:42;;;;;;;45.92;7.68;;;3.30;99.90;;;;;;5048135;28;20032;-66
2023/12/14 12:27:09;;;;;;;46.17;7.25;;;3.20;99.90;;;;;;5051150;28;20108;-64
2023/12/14 12:29:37;;;;;;;10.95;6.07;;;3.30;99.90;;;;;;5048400;28;20047;-65
2023/12/14 12:32:03;;;;;;;25.50;7.78;;;3.30;99.90;;;;;;5046158;28;20029;-64
2023/12/14 12:34:29;;;;;;;22.77;7.03;;;3.30;99.90;;;;;;5047554;28;20408;-64
2023/12/14 12:36:54;;;;;;;26.67;7.55;;;3.20;99.90;;;;;;5051774;28;20040;-66
2023/12/14 12:39:20;;;;;;;10.52;6.72;;;3.20;99.90;;;;;;5050733;28;20034;-66
2023/12/14 12:41:49;;;;;;;11.13;6.50;;;3.40;99.90;;;;;;5053710;28;20039;-64
2023/12/14 12:44:15;;;;;;;11.65;5.38;;;3.40;99.90;;;;;;5045741;28;20122;-66
2023/12/14 12:46:41;;;;;;;12.57;5.43;;;3.50;99.90;;;;;;5049630;28;20116;-66
2023/12/14 12:49:06;;;;;;;18.00;6.93;;;3.50;99.90;;;;;;5048100;28;20136;-65
2023/12/14 12:51:32;;;;;;;19.65;7.18;;;3.50;99.90;;;;;;5049517;28;20060;-66